Terminal Aerodrome Forecast
Issued by NWS Northern Indiana

Home | Current Version | Previous Version | Text Only | Print | Product List | Glossary Off
Versions: 1 2 3 4 5 6 7 8 9 10 11 12 13 14 15

000
FTUS43 KIWX 271700
TAFFWA
TAF
KFWA 271720Z 2718/2818 21014G23KT P6SM BKN250
     FM281000 22013KT 5SM -SHRA VCTS OVC025CB
     FM281700 26014G20KT P6SM BKN040=

USA.gov is the U.S. government's official web portal to all federal, state and local government web resources and services.